createdAt,value
2022-10-22T00:00:52.800Z,11.05
2022-10-22T00:01:52.789Z,11.05
2022-10-22T00:02:52.828Z,11.05
2022-10-22T00:03:53.650Z,11.07
2022-10-22T00:04:52.743Z,11.04
2022-10-22T00:05:52.752Z,11.04
2022-10-22T00:06:52.749Z,11.05
2022-10-22T00:07:52.688Z,11.04
2022-10-22T00:08:52.784Z,11.02
2022-10-22T00:09:52.705Z,10.96
2022-10-22T00:10:52.679Z,11.00
2022-10-22T00:11:52.658Z,10.97
2022-10-22T00:12:52.665Z,10.97
2022-10-22T00:13:52.658Z,10.97
2022-10-22T00:14:52.635Z,10.94
2022-10-22T00:15:52.681Z,10.92
2022-10-22T00:16:52.608Z,10.90
2022-10-22T00:17:52.592Z,10.92
2022-10-22T00:18:52.587Z,10.92
2022-10-22T00:19:52.627Z,10.90
2022-10-22T00:20:52.578Z,10.90
2022-10-22T00:21:52.622Z,10.96
2022-10-22T00:23:52.563Z,10.96
2022-10-22T00:24:52.543Z,10.97
2022-10-22T00:25:52.537Z,10.97
2022-10-22T00:26:52.500Z,10.97
2022-10-22T00:27:52.522Z,11.00
2022-10-22T00:28:52.491Z,11.04
2022-10-22T00:29:52.473Z,11.04
2022-10-22T00:30:52.449Z,11.04
2022-10-22T00:31:52.507Z,11.08
2022-10-22T00:32:52.432Z,11.10
2022-10-22T00:33:52.481Z,11.11
2022-10-22T00:34:52.457Z,11.15
2022-10-22T00:35:52.449Z,11.17
2022-10-22T00:36:52.377Z,11.14
2022-10-22T00:37:52.378Z,11.14
2022-10-22T00:38:52.424Z,11.14
2022-10-22T00:39:52.407Z,11.17
2022-10-22T00:40:52.390Z,11.17
2022-10-22T00:41:52.341Z,11.22
2022-10-22T00:42:52.343Z,11.23
2022-10-22T00:43:52.387Z,11.25
2022-10-22T00:44:52.291Z,11.25
2022-10-22T00:45:52.368Z,11.29
2022-10-22T00:46:52.299Z,11.32
2022-10-22T00:47:52.306Z,11.35
2022-10-22T00:48:53.072Z,11.33
2022-10-22T00:49:52.303Z,11.37
2022-10-22T00:50:52.235Z,11.41
2022-10-22T00:51:52.268Z,11.41
2022-10-22T00:52:52.208Z,11.45
2022-10-22T00:53:52.221Z,11.50
2022-10-22T00:54:52.248Z,11.54
2022-10-22T00:55:52.189Z,11.59
2022-10-22T00:56:52.185Z,11.63
2022-10-22T00:57:52.223Z,11.69
2022-10-22T00:58:52.186Z,11.77
2022-10-22T00:59:52.176Z,11.80
2022-10-22T01:00:52.198Z,11.83
2022-10-22T01:01:52.196Z,11.83
2022-10-22T01:02:52.171Z,11.80
2022-10-22T01:03:52.215Z,11.80
2022-10-22T01:04:52.141Z,11.81
2022-10-22T01:05:52.119Z,11.87
2022-10-22T01:06:52.156Z,12.06
2022-10-22T01:07:52.097Z,12.18
2022-10-22T01:08:52.087Z,12.29
2022-10-22T01:09:52.125Z,12.39
2022-10-22T01:10:52.081Z,12.47
2022-10-22T01:11:52.058Z,12.49
2022-10-22T01:12:52.009Z,12.47
2022-10-22T01:13:52.041Z,12.46
2022-10-22T01:14:52.009Z,12.45
2022-10-22T01:15:52.133Z,12.40
2022-10-22T01:16:52.008Z,12.37
2022-10-22T01:17:52.008Z,12.31
2022-10-22T01:18:52.026Z,12.28
2022-10-22T01:19:51.958Z,12.27
2022-10-22T01:20:51.947Z,12.27
2022-10-22T01:21:52.084Z,12.22
2022-10-22T01:22:51.931Z,12.20
2022-10-22T01:23:51.928Z,12.18
2022-10-22T01:24:51.928Z,12.09
2022-10-22T01:25:51.904Z,12.06
2022-10-22T01:26:51.899Z,12.02
2022-10-22T01:27:51.970Z,12.00
2022-10-22T01:28:51.911Z,11.99
2022-10-22T01:29:51.857Z,11.94
2022-10-22T01:30:51.846Z,11.86
2022-10-22T01:31:51.813Z,11.84
2022-10-22T01:32:51.856Z,11.83
2022-10-22T01:33:51.853Z,11.81
2022-10-22T01:34:51.789Z,11.80
2022-10-22T01:35:51.816Z,11.78
2022-10-22T01:36:51.804Z,11.75
2022-10-22T01:37:51.866Z,11.78
2022-10-22T01:38:51.759Z,11.75
2022-10-22T01:39:51.808Z,11.75
2022-10-22T01:40:51.743Z,11.75
2022-10-22T01:41:51.719Z,11.73
2022-10-22T01:42:51.693Z,11.72
2022-10-22T01:43:51.722Z,11.69
2022-10-22T01:44:51.710Z,11.69
2022-10-22T01:45:51.743Z,11.69
2022-10-22T01:46:51.664Z,11.68
2022-10-22T01:47:51.660Z,11.69
2022-10-22T01:48:51.623Z,11.66
2022-10-22T01:49:51.639Z,11.63
2022-10-22T01:50:51.597Z,11.65
2022-10-22T01:51:51.637Z,11.57
2022-10-22T01:52:51.611Z,11.55
2022-10-22T01:53:51.594Z,11.55
2022-10-22T01:54:51.558Z,11.54
2022-10-22T01:55:51.602Z,11.55
2022-10-22T01:56:51.544Z,11.54
2022-10-22T01:57:51.571Z,11.51
2022-10-22T01:58:51.533Z,11.50
2022-10-22T01:59:51.508Z,11.50
2022-10-22T02:00:51.561Z,11.43
2022-10-22T02:01:51.509Z,11.44
2022-10-22T02:02:51.492Z,11.44
2022-10-22T02:03:51.520Z,11.44
2022-10-22T02:04:51.473Z,11.41
2022-10-22T02:05:51.449Z,11.37
2022-10-22T02:06:51.446Z,11.36
2022-10-22T02:07:51.461Z,11.30
2022-10-22T02:08:51.459Z,11.26
2022-10-22T02:09:51.453Z,11.23
2022-10-22T02:10:51.383Z,11.22
2022-10-22T02:11:51.430Z,11.19
2022-10-22T02:12:51.388Z,11.22
2022-10-22T02:13:51.393Z,11.22
2022-10-22T02:14:51.351Z,11.22
2022-10-22T02:15:51.414Z,11.23
2022-10-22T02:16:51.346Z,11.26
2022-10-22T02:17:51.382Z,11.22
2022-10-22T02:18:51.336Z,11.22
2022-10-22T02:19:51.335Z,11.22
2022-10-22T02:20:51.355Z,11.19
2022-10-22T02:21:51.395Z,11.17
2022-10-22T02:22:51.303Z,11.22
2022-10-22T02:23:51.290Z,11.17
2022-10-22T02:24:51.282Z,11.15
2022-10-22T02:25:51.279Z,11.11
2022-10-22T02:26:51.333Z,11.10
2022-10-22T02:27:51.317Z,11.10
2022-10-22T02:28:51.237Z,11.11
2022-10-22T02:29:51.253Z,11.11
2022-10-22T02:30:51.331Z,11.12
2022-10-22T02:31:51.242Z,11.11
2022-10-22T02:32:51.170Z,11.10
2022-10-22T02:33:51.226Z,11.08
2022-10-22T02:34:51.143Z,11.04
2022-10-22T02:35:51.152Z,11.02
2022-10-22T02:36:51.188Z,11.05
2022-10-22T02:37:51.159Z,11.05
2022-10-22T02:38:51.123Z,11.05
2022-10-22T02:39:51.163Z,11.05
2022-10-22T02:40:51.972Z,11.07
2022-10-22T02:41:51.097Z,11.05
2022-10-22T02:42:51.070Z,11.08
2022-10-22T02:43:51.061Z,11.08
2022-10-22T02:44:51.064Z,11.11
2022-10-22T02:45:51.087Z,11.14
2022-10-22T02:46:51.058Z,11.12
2022-10-22T02:47:51.038Z,11.11
2022-10-22T02:48:51.781Z,11.10
2022-10-22T02:49:51.072Z,11.11
2022-10-22T02:50:50.993Z,11.10
2022-10-22T02:51:51.014Z,11.07
2022-10-22T02:52:50.963Z,11.08
2022-10-22T02:53:50.965Z,11.07
2022-10-22T02:54:50.948Z,11.05
2022-10-22T02:55:50.944Z,11.02
2022-10-22T02:56:50.904Z,10.97
2022-10-22T02:57:50.957Z,10.96
2022-10-22T02:58:50.889Z,10.94
2022-10-22T02:59:50.936Z,10.93
2022-10-22T03:00:50.906Z,10.94
2022-10-22T03:01:50.887Z,10.94
2022-10-22T03:02:50.855Z,10.94
2022-10-22T03:03:50.861Z,10.93
2022-10-22T03:04:50.828Z,10.92
2022-10-22T03:05:50.847Z,10.92
2022-10-22T03:06:50.823Z,10.94
2022-10-22T03:07:50.860Z,10.97
2022-10-22T03:08:50.825Z,10.96
2022-10-22T03:09:50.916Z,11.02
2022-10-22T03:10:50.779Z,11.05
2022-10-22T03:11:50.818Z,11.07
2022-10-22T03:12:50.804Z,11.07
2022-10-22T03:13:50.787Z,10.97
2022-10-22T03:14:50.789Z,10.94
2022-10-22T03:15:50.764Z,10.92
2022-10-22T03:16:50.727Z,10.96
2022-10-22T03:17:50.691Z,10.96
2022-10-22T03:18:50.819Z,10.99
2022-10-22T03:19:50.718Z,11.00
2022-10-22T03:20:50.672Z,10.99
2022-10-22T03:21:50.671Z,10.97
2022-10-22T03:22:51.624Z,10.96
2022-10-22T03:23:50.658Z,11.00
2022-10-22T03:24:50.650Z,11.00
2022-10-22T03:25:50.677Z,10.96
2022-10-22T03:26:50.609Z,11.00
2022-10-22T03:27:50.674Z,11.02
2022-10-22T03:28:50.616Z,11.02
2022-10-22T03:29:50.549Z,11.00
2022-10-22T03:30:50.580Z,10.94
2022-10-22T03:31:50.577Z,10.94
2022-10-22T03:32:50.547Z,10.93
2022-10-22T03:33:50.557Z,10.94
2022-10-22T03:34:50.587Z,10.94
2022-10-22T03:35:50.489Z,10.93
2022-10-22T03:36:50.511Z,10.94
2022-10-22T03:37:50.461Z,10.94
2022-10-22T03:38:50.481Z,10.96
2022-10-22T03:39:50.498Z,10.99
2022-10-22T03:40:50.450Z,10.99
2022-10-22T03:41:50.415Z,10.96
2022-10-22T03:42:50.418Z,10.97
2022-10-22T03:43:50.406Z,10.97
2022-10-22T03:44:50.432Z,10.99
2022-10-22T03:45:50.975Z,11.00
2022-10-22T03:46:50.394Z,11.00
2022-10-22T03:47:50.374Z,10.96
2022-10-22T03:48:50.422Z,10.96
2022-10-22T03:49:50.359Z,10.94
2022-10-22T03:50:50.380Z,10.99
2022-10-22T03:51:50.376Z,11.02
2022-10-22T03:52:50.328Z,11.00
2022-10-22T03:53:50.332Z,11.08
2022-10-22T03:54:50.308Z,11.11
2022-10-22T03:55:50.288Z,11.08
2022-10-22T03:56:50.301Z,11.07
2022-10-22T03:57:50.294Z,11.04
2022-10-22T03:58:50.392Z,11.07
2022-10-22T03:59:50.247Z,11.10
2022-10-22T04:00:50.303Z,11.08
2022-10-22T04:01:50.267Z,11.12
2022-10-22T04:02:50.216Z,11.12
2022-10-22T04:03:50.352Z,11.15
2022-10-22T04:04:50.204Z,11.17
2022-10-22T04:05:50.171Z,11.18
2022-10-22T04:06:50.196Z,11.19
2022-10-22T04:07:50.158Z,11.18
2022-10-22T04:08:50.187Z,11.22
2022-10-22T04:09:50.149Z,11.19
2022-10-22T04:10:50.153Z,11.23
2022-10-22T04:11:50.118Z,11.22
2022-10-22T04:12:50.166Z,11.25
2022-10-22T04:13:50.175Z,11.27
2022-10-22T04:14:50.115Z,11.26
2022-10-22T04:15:50.074Z,11.26
2022-10-22T04:16:50.084Z,11.26
2022-10-22T04:17:50.042Z,11.26
2022-10-22T04:18:50.050Z,11.27
2022-10-22T04:19:50.322Z,11.27
2022-10-22T04:20:50.059Z,11.30
2022-10-22T04:21:50.021Z,11.30
2022-10-22T04:22:50.039Z,11.29
2022-10-22T04:23:49.993Z,11.27
2022-10-22T04:25:49.966Z,11.23
2022-10-22T04:26:50.129Z,11.22
2022-10-22T04:27:49.950Z,11.17
2022-10-22T04:28:49.947Z,11.15
2022-10-22T04:29:49.943Z,11.15
2022-10-22T04:30:49.901Z,11.15
2022-10-22T04:31:49.910Z,11.14
2022-10-22T04:32:49.985Z,11.12
2022-10-22T04:33:49.886Z,11.14
2022-10-22T04:34:49.863Z,11.12
2022-10-22T04:35:49.887Z,11.10
2022-10-22T04:36:49.875Z,11.05
2022-10-22T04:37:50.018Z,11.05
2022-10-22T04:38:49.862Z,11.00
2022-10-22T04:39:49.832Z,11.00
2022-10-22T04:40:49.851Z,10.96
2022-10-22T04:41:49.849Z,10.93
2022-10-22T04:42:49.780Z,10.89
2022-10-22T04:43:49.820Z,10.84
2022-10-22T04:44:49.834Z,10.78
2022-10-22T04:45:49.854Z,10.74
2022-10-22T04:46:49.770Z,10.72
2022-10-22T04:47:49.757Z,10.74
2022-10-22T04:48:49.728Z,10.74
2022-10-22T04:49:49.788Z,10.75
2022-10-22T04:50:49.800Z,10.69
2022-10-22T04:51:49.709Z,10.64
2022-10-22T04:52:49.696Z,10.67
2022-10-22T04:53:49.753Z,10.67
2022-10-22T04:54:49.652Z,10.68
2022-10-22T04:55:49.678Z,10.67
2022-10-22T04:56:49.697Z,10.68
2022-10-22T04:57:49.649Z,10.69
2022-10-22T04:58:49.651Z,10.68
2022-10-22T04:59:49.622Z,10.71
2022-10-22T05:00:49.640Z,10.69
2022-10-22T05:01:49.621Z,10.69
2022-10-22T05:02:49.620Z,10.63
2022-10-22T05:03:49.588Z,10.59
2022-10-22T05:04:49.575Z,10.53
2022-10-22T05:05:49.551Z,10.54
2022-10-22T05:06:49.544Z,10.56
2022-10-22T05:07:49.530Z,10.53
2022-10-22T05:08:49.583Z,10.51
2022-10-22T05:09:49.546Z,10.49
2022-10-22T05:10:50.155Z,10.51
2022-10-22T05:13:15.472Z,10.51
2022-10-22T05:13:46.321Z,10.54
2022-10-22T05:14:20.349Z,10.57
2022-10-22T05:15:20.289Z,10.74
2022-10-22T05:16:20.293Z,10.75
2022-10-22T05:17:20.272Z,10.76
2022-10-22T05:18:22.521Z,10.82
2022-10-22T05:19:20.263Z,10.92
2022-10-22T05:20:20.280Z,10.97
2022-10-22T05:21:20.233Z,11.05
2022-10-22T05:22:20.231Z,11.12
2022-10-22T05:23:20.206Z,11.18
2022-10-22T05:24:20.214Z,11.33
2022-10-22T05:25:20.185Z,11.52
2022-10-22T05:26:20.236Z,11.73
2022-10-22T05:27:20.180Z,11.83
2022-10-22T05:28:20.172Z,11.94
2022-10-22T05:29:20.150Z,12.06
2022-10-22T05:30:20.159Z,12.15
2022-10-22T05:31:20.129Z,12.21
2022-10-22T05:32:20.153Z,12.24
2022-10-22T05:33:23.986Z,12.21
2022-10-22T05:34:20.109Z,12.18
2022-10-22T05:35:20.081Z,12.15
2022-10-22T05:36:20.090Z,12.10
2022-10-22T05:37:20.093Z,12.12
2022-10-22T05:38:20.070Z,12.10
2022-10-22T05:39:20.037Z,12.13
2022-10-22T05:40:30.466Z,12.32
2022-10-22T05:41:20.034Z,12.42
2022-10-22T05:42:20.027Z,12.58
2022-10-22T05:43:20.165Z,12.60
2022-10-22T05:44:20.005Z,12.70
2022-10-22T05:45:19.975Z,12.78
2022-10-22T05:46:22.893Z,12.83
2022-10-22T05:47:19.959Z,12.85
2022-10-22T05:48:20.016Z,12.86
2022-10-22T05:49:19.972Z,12.82
2022-10-22T05:50:19.934Z,12.79
2022-10-22T05:51:19.924Z,12.87
2022-10-22T05:52:19.929Z,13.03
2022-10-22T05:53:19.892Z,13.12
2022-10-22T05:54:19.913Z,13.15
2022-10-22T05:55:19.946Z,13.15
2022-10-22T05:56:19.873Z,13.15
2022-10-22T05:57:19.853Z,13.09
2022-10-22T05:58:19.858Z,13.04
2022-10-22T05:59:19.837Z,13.03
2022-10-22T06:00:19.817Z,13.03
2022-10-22T06:01:19.845Z,13.00
2022-10-22T06:02:19.853Z,12.95
2022-10-22T06:03:19.787Z,12.97
2022-10-22T06:04:19.790Z,12.94
2022-10-22T06:05:19.820Z,12.95
2022-10-22T06:06:19.777Z,12.91
2022-10-22T06:07:19.774Z,12.83
2022-10-22T06:08:19.753Z,12.78
2022-10-22T06:09:19.730Z,12.72
2022-10-22T06:10:19.724Z,12.58
2022-10-22T06:11:19.707Z,12.58
2022-10-22T06:12:19.706Z,12.53
2022-10-22T06:13:19.721Z,12.49
2022-10-22T06:14:19.683Z,12.53
2022-10-22T06:15:19.666Z,12.53
2022-10-22T06:16:19.679Z,12.50
2022-10-22T06:17:19.643Z,12.47
2022-10-22T06:18:19.639Z,12.53
2022-10-22T06:19:19.777Z,12.50
2022-10-22T06:20:19.684Z,12.60
2022-10-22T06:21:19.643Z,12.68
2022-10-22T06:22:19.678Z,12.72
2022-10-22T06:23:19.583Z,12.75
2022-10-22T06:24:19.587Z,12.78
2022-10-22T06:25:19.597Z,12.82
2022-10-22T06:26:19.579Z,12.85
2022-10-22T06:27:19.577Z,12.87
2022-10-22T06:28:19.586Z,12.90
2022-10-22T06:29:19.547Z,12.87
2022-10-22T06:30:19.579Z,12.90
2022-10-22T06:31:19.619Z,12.85
2022-10-22T06:32:19.503Z,12.80
2022-10-22T06:33:19.522Z,12.85
2022-10-22T06:34:19.525Z,12.86
2022-10-22T06:35:19.479Z,12.79
2022-10-22T06:36:19.456Z,12.80
2022-10-22T06:37:19.535Z,12.90
2022-10-22T06:38:19.471Z,12.90
2022-10-22T06:39:19.561Z,12.85
2022-10-22T06:40:19.414Z,12.86
2022-10-22T06:41:19.381Z,12.83
2022-10-22T06:42:19.477Z,12.95
2022-10-22T06:43:19.511Z,13.04
2022-10-22T06:44:19.469Z,13.11
2022-10-22T06:45:19.341Z,13.15
2022-10-22T06:46:20.181Z,13.20
2022-10-22T06:47:19.323Z,13.23
2022-10-22T06:48:19.324Z,13.22
2022-10-22T06:49:19.328Z,13.12
2022-10-22T06:50:19.303Z,13.04
2022-10-22T06:51:19.279Z,13.00
2022-10-22T06:52:19.283Z,13.04
2022-10-22T06:54:19.261Z,13.03
2022-10-22T06:55:19.262Z,12.98
2022-10-22T06:56:19.241Z,13.05
2022-10-22T06:57:19.233Z,13.11
2022-10-22T06:58:19.227Z,13.16
2022-10-22T06:59:19.197Z,13.20
2022-10-22T07:00:19.240Z,13.22
2022-10-22T07:01:19.271Z,13.25
2022-10-22T07:02:19.177Z,13.33
2022-10-22T07:03:19.155Z,13.39
2022-10-22T07:04:19.160Z,13.47
2022-10-22T07:05:19.238Z,13.50
2022-10-22T07:06:19.138Z,13.50
2022-10-22T07:07:19.165Z,13.50
2022-10-22T07:08:19.119Z,13.53
2022-10-22T07:10:19.096Z,13.53
2022-10-22T07:11:19.084Z,13.53
2022-10-22T07:12:19.117Z,13.56
2022-10-22T07:13:19.050Z,13.57
2022-10-22T07:14:19.058Z,13.57
2022-10-22T07:15:19.031Z,13.62
2022-10-22T07:16:19.041Z,13.72
2022-10-22T07:17:19.007Z,13.85
2022-10-22T07:18:19.031Z,13.86
2022-10-22T07:19:18.992Z,13.89
2022-10-22T07:20:18.989Z,13.93
2022-10-22T07:21:18.984Z,13.89
2022-10-22T07:22:18.969Z,13.90
2022-10-22T07:23:18.988Z,13.87
2022-10-22T07:24:18.953Z,13.95
2022-10-22T07:25:18.921Z,14.00
2022-10-22T07:26:18.947Z,14.07
2022-10-22T07:27:18.902Z,14.11
2022-10-22T07:28:18.908Z,14.12
2022-10-22T07:29:18.905Z,14.17
2022-10-22T07:30:18.900Z,14.20
2022-10-22T07:31:18.867Z,14.20
2022-10-22T07:32:22.939Z,14.35
2022-10-22T07:33:18.843Z,14.44
2022-10-22T07:35:18.824Z,14.45
2022-10-22T07:36:18.828Z,14.48
2022-10-22T07:37:18.797Z,14.51
2022-10-22T07:38:18.798Z,14.55
2022-10-22T07:39:18.775Z,14.66
2022-10-22T07:40:18.793Z,14.72
2022-10-22T07:41:18.771Z,14.82
2022-10-22T07:42:18.820Z,14.84
2022-10-22T07:43:18.797Z,14.85
2022-10-22T07:44:18.746Z,14.84
2022-10-22T07:45:18.745Z,14.86
2022-10-22T07:46:18.709Z,14.88
2022-10-22T07:47:18.703Z,14.92
2022-10-22T07:48:18.689Z,14.92
2022-10-22T07:49:18.669Z,14.92
2022-10-22T07:50:18.676Z,14.91
2022-10-22T07:51:18.682Z,14.89
2022-10-22T07:52:18.655Z,14.91
2022-10-22T07:53:18.641Z,14.92
2022-10-22T07:54:18.628Z,14.99
2022-10-22T07:55:18.602Z,15.06
2022-10-22T07:56:18.704Z,15.14
2022-10-22T07:57:18.584Z,15.18
2022-10-22T07:58:18.614Z,15.24
2022-10-22T07:59:18.563Z,15.35
2022-10-22T08:00:20.594Z,15.36
2022-10-22T08:01:18.628Z,15.39
2022-10-22T08:02:18.582Z,15.42
2022-10-22T08:03:18.532Z,15.46
2022-10-22T08:04:18.520Z,15.51
2022-10-22T08:05:18.506Z,15.65
2022-10-22T08:06:18.504Z,15.68
2022-10-22T08:07:18.519Z,15.73
2022-10-22T08:08:18.798Z,15.80
2022-10-22T08:09:18.459Z,15.83
2022-10-22T08:10:18.472Z,15.95
2022-10-22T08:11:18.440Z,16.00
2022-10-22T08:12:18.435Z,15.98
2022-10-22T08:13:18.418Z,15.97
2022-10-22T08:14:18.438Z,15.95
2022-10-22T08:15:18.394Z,16.05
2022-10-22T08:16:18.400Z,16.09
2022-10-22T08:17:18.382Z,16.17
2022-10-22T08:18:18.375Z,16.20
2022-10-22T08:19:18.492Z,16.24
2022-10-22T08:20:18.358Z,16.33
2022-10-22T08:21:18.365Z,16.35
2022-10-22T08:22:18.338Z,16.38
2022-10-22T08:23:18.324Z,16.39
2022-10-22T08:24:18.309Z,16.46
2022-10-22T08:25:18.320Z,16.53
2022-10-22T08:26:18.293Z,16.53
2022-10-22T08:27:18.266Z,16.47
2022-10-22T08:28:21.206Z,16.47
2022-10-22T08:29:18.244Z,16.41
2022-10-22T08:30:18.254Z,16.38
2022-10-22T08:31:18.251Z,16.38
2022-10-22T08:32:18.303Z,16.36
2022-10-22T08:33:18.202Z,16.36
2022-10-22T08:34:18.211Z,16.32
2022-10-22T08:35:18.184Z,16.31
2022-10-22T08:36:18.202Z,16.33
2022-10-22T08:37:18.181Z,16.26
2022-10-22T08:38:18.180Z,16.28
2022-10-22T08:39:18.171Z,16.29
2022-10-22T08:40:18.130Z,16.28
2022-10-22T08:41:18.129Z,16.26
2022-10-22T08:42:18.139Z,16.20
2022-10-22T08:43:18.108Z,16.24
2022-10-22T08:44:18.084Z,16.32
2022-10-22T08:45:18.087Z,16.41
2022-10-22T08:46:18.081Z,16.43
2022-10-22T08:47:21.382Z,16.47
2022-10-22T08:48:18.067Z,16.47
2022-10-22T08:49:18.103Z,16.47
2022-10-22T08:50:18.024Z,16.54
2022-10-22T08:51:18.067Z,16.56
2022-10-22T08:52:18.026Z,16.58
2022-10-22T08:53:18.041Z,16.66
2022-10-22T08:54:17.986Z,16.69
2022-10-22T08:55:18.003Z,16.74
2022-10-22T08:56:17.965Z,16.76
2022-10-22T08:57:17.984Z,16.79
2022-10-22T08:58:17.945Z,16.81
2022-10-22T08:59:17.962Z,16.83
2022-10-22T09:00:17.917Z,16.79
2022-10-22T09:01:17.953Z,16.84
2022-10-22T09:02:17.900Z,16.89
2022-10-22T09:03:17.919Z,16.89
2022-10-22T09:04:17.914Z,16.90
2022-10-22T09:05:17.880Z,16.87
2022-10-22T09:06:17.855Z,16.86
2022-10-22T09:07:17.864Z,16.96
2022-10-22T09:08:17.852Z,16.93
2022-10-22T09:09:17.960Z,16.96
2022-10-22T09:10:17.854Z,16.96
2022-10-22T09:11:17.817Z,16.96
2022-10-22T09:12:20.225Z,17.01
2022-10-22T09:13:17.849Z,17.01
2022-10-22T09:14:17.795Z,16.99
2022-10-22T09:15:17.835Z,17.01
2022-10-22T09:16:17.747Z,17.04
2022-10-22T09:17:17.749Z,17.01
2022-10-22T09:18:17.725Z,17.02
2022-10-22T09:19:17.750Z,17.01
2022-10-22T09:20:17.720Z,16.97
2022-10-22T09:21:17.732Z,17.01
2022-10-22T09:22:17.683Z,17.01
2022-10-22T09:23:17.700Z,17.01
2022-10-22T09:24:17.666Z,16.96
2022-10-22T09:25:17.669Z,16.97
2022-10-22T09:26:17.698Z,16.94
2022-10-22T09:27:17.649Z,17.01
2022-10-22T09:28:17.657Z,17.02
2022-10-22T09:29:17.625Z,17.02
2022-10-22T09:30:17.689Z,17.05
2022-10-22T09:31:17.619Z,17.04
2022-10-22T09:32:17.617Z,16.97
2022-10-22T09:33:21.309Z,17.02
2022-10-22T09:34:17.561Z,17.02
2022-10-22T09:35:17.568Z,17.01
2022-10-22T09:36:17.620Z,16.99
2022-10-22T09:37:17.575Z,17.06
2022-10-22T09:38:17.517Z,17.12
2022-10-22T09:39:17.548Z,17.22
2022-10-22T09:40:17.680Z,17.27
2022-10-22T09:41:17.496Z,17.31
2022-10-22T09:42:17.480Z,17.31
2022-10-22T09:43:17.544Z,17.36
2022-10-22T09:44:17.456Z,17.44
2022-10-22T09:45:17.460Z,17.39
2022-10-22T09:46:17.436Z,17.39
2022-10-22T09:47:17.441Z,17.38
2022-10-22T09:48:17.431Z,17.39
2022-10-22T09:49:17.418Z,17.41
2022-10-22T09:50:17.399Z,17.41
2022-10-22T09:51:17.403Z,17.39
2022-10-22T09:52:17.380Z,17.39
2022-10-22T09:53:17.368Z,17.41
2022-10-22T09:54:17.364Z,17.41
2022-10-22T09:55:17.356Z,17.36
2022-10-22T09:56:17.367Z,17.39
2022-10-22T09:57:17.340Z,17.41
2022-10-22T09:58:17.305Z,17.41
2022-10-22T09:59:17.332Z,17.41
2022-10-22T10:00:17.286Z,17.39
2022-10-22T10:01:17.287Z,17.36
2022-10-22T10:02:37.046Z,17.31
2022-10-22T10:03:17.321Z,17.30
2022-10-22T10:04:17.325Z,17.23
2022-10-22T10:05:17.258Z,17.19
2022-10-22T10:06:17.304Z,17.16
2022-10-22T10:07:17.226Z,17.12
2022-10-22T10:08:17.195Z,17.04
2022-10-22T10:09:17.277Z,17.01
2022-10-22T10:10:17.208Z,16.97
2022-10-22T10:11:17.181Z,16.94
2022-10-22T10:12:17.155Z,16.87
2022-10-22T10:13:17.164Z,16.79
2022-10-22T10:14:17.129Z,16.68
2022-10-22T10:15:17.134Z,16.56
2022-10-22T10:16:17.151Z,16.54
2022-10-22T10:17:17.114Z,16.51
2022-10-22T10:18:17.103Z,16.47
2022-10-22T10:19:17.106Z,16.47
2022-10-22T10:20:17.069Z,16.43
2022-10-22T10:21:17.118Z,16.41
2022-10-22T10:22:17.047Z,16.41
2022-10-22T10:23:18.592Z,16.38
2022-10-22T10:24:17.066Z,16.36
2022-10-22T10:25:17.029Z,16.33
2022-10-22T10:26:17.008Z,16.33
2022-10-22T10:27:17.028Z,16.36
2022-10-22T10:28:16.983Z,16.38
2022-10-22T10:29:16.994Z,16.46
2022-10-22T10:30:16.963Z,16.43
2022-10-22T10:31:16.962Z,16.46
2022-10-22T10:32:20.999Z,16.49
2022-10-22T10:33:16.951Z,16.49
2022-10-22T10:34:16.927Z,16.51
2022-10-22T10:35:16.932Z,16.61
2022-10-22T10:36:16.896Z,16.61
2022-10-22T10:37:16.901Z,16.61
2022-10-22T10:38:16.902Z,16.64
2022-10-22T10:39:16.890Z,16.60
2022-10-22T10:40:16.862Z,16.65
2022-10-22T10:41:16.912Z,16.68
2022-10-22T10:42:16.840Z,16.68
2022-10-22T10:43:16.910Z,16.69
2022-10-22T10:44:16.817Z,16.72
2022-10-22T10:45:16.829Z,16.79
2022-10-22T10:47:16.830Z,17.01
2022-10-22T10:48:16.770Z,17.24
2022-10-22T10:49:16.825Z,17.26
2022-10-22T10:50:16.749Z,17.29
2022-10-22T10:51:16.753Z,17.52
2022-10-22T10:52:19.025Z,17.68
2022-10-22T10:53:16.733Z,17.98
2022-10-22T10:54:16.755Z,18.15
2022-10-22T10:55:16.711Z,18.11
2022-10-22T10:56:16.689Z,18.18
2022-10-22T10:57:16.691Z,17.86
2022-10-22T10:58:16.668Z,17.52
2022-10-22T10:59:16.693Z,17.46
2022-10-22T11:00:16.687Z,17.46
2022-10-22T11:01:16.741Z,17.41
2022-10-22T11:02:16.621Z,17.34
2022-10-22T11:03:16.646Z,17.29
2022-10-22T11:04:16.603Z,17.23
2022-10-22T11:05:16.618Z,17.15
2022-10-22T11:06:17.844Z,17.11
2022-10-22T11:07:33.564Z,17.06
2022-10-22T11:08:16.567Z,17.06
2022-10-22T11:09:16.591Z,17.02
2022-10-22T11:10:16.549Z,17.01
2022-10-22T11:12:16.551Z,16.87
2022-10-22T11:13:16.530Z,16.84
2022-10-22T11:14:16.492Z,16.78
2022-10-22T11:15:16.512Z,16.75
2022-10-22T11:16:16.478Z,16.71
2022-10-22T11:17:16.506Z,16.69
2022-10-22T11:18:16.489Z,16.71
2022-10-22T11:19:22.720Z,16.65
2022-10-22T11:20:16.439Z,16.66
2022-10-22T11:21:16.446Z,16.65
2022-10-22T11:22:16.428Z,16.60
2022-10-22T11:23:20.151Z,16.54
2022-10-22T11:24:16.473Z,16.56
2022-10-22T11:25:16.396Z,16.53
2022-10-22T11:26:16.367Z,16.54
2022-10-22T11:27:16.379Z,16.50
2022-10-22T11:28:16.370Z,16.47
2022-10-22T11:29:16.353Z,16.49
2022-10-22T11:30:16.407Z,16.47
2022-10-22T11:31:16.339Z,16.47
2022-10-22T11:32:16.306Z,16.46
2022-10-22T11:33:16.322Z,16.46
2022-10-22T11:34:32.654Z,16.43
2022-10-22T11:35:16.307Z,16.39
2022-10-22T11:36:16.316Z,16.39
2022-10-22T11:37:16.266Z,16.38
2022-10-22T11:38:16.252Z,16.39
2022-10-22T11:39:16.250Z,16.39
2022-10-22T11:40:16.238Z,16.42
2022-10-22T11:41:16.227Z,16.41
2022-10-22T11:42:16.234Z,16.36
2022-10-22T11:43:16.217Z,16.39
2022-10-22T11:44:16.178Z,16.39
2022-10-22T11:45:16.186Z,16.39
2022-10-22T11:46:16.161Z,16.36
2022-10-22T11:47:16.176Z,16.39
2022-10-22T11:48:16.165Z,16.35
2022-10-22T11:49:16.153Z,16.35
2022-10-22T11:50:16.115Z,16.36
2022-10-22T11:51:16.127Z,16.36
2022-10-22T11:52:16.093Z,16.36
2022-10-22T11:53:16.099Z,16.35
2022-10-22T11:54:16.119Z,16.35
2022-10-22T11:55:16.079Z,16.35
2022-10-22T11:56:16.081Z,16.31
2022-10-22T11:57:16.060Z,16.26
2022-10-22T11:58:16.047Z,16.28
2022-10-22T11:59:16.040Z,16.26
2022-10-22T12:00:16.044Z,16.29
2022-10-22T12:01:16.015Z,16.24
2022-10-22T12:02:15.999Z,16.31
2022-10-22T12:03:15.993Z,16.33
2022-10-22T12:04:16.057Z,16.38
2022-10-22T12:05:15.975Z,16.41
2022-10-22T12:06:16.022Z,16.41
2022-10-22T12:07:15.951Z,16.43
2022-10-22T12:08:15.964Z,16.49
2022-10-22T12:09:15.966Z,16.50
2022-10-22T12:10:18.343Z,16.49
2022-10-22T12:11:15.919Z,16.50
2022-10-22T12:12:15.908Z,16.53
2022-10-22T12:13:15.884Z,16.56
2022-10-22T12:14:15.856Z,16.60
2022-10-22T12:15:15.858Z,16.57
2022-10-22T12:16:23.607Z,16.61
2022-10-22T12:17:15.848Z,16.65
2022-10-22T12:18:15.845Z,16.66
2022-10-22T12:19:15.820Z,16.66
2022-10-22T12:20:15.828Z,16.68
2022-10-22T12:21:15.804Z,16.71
2022-10-22T12:22:15.786Z,16.71
2022-10-22T12:23:15.797Z,16.68
2022-10-22T12:24:15.780Z,16.72
2022-10-22T12:25:15.769Z,16.75
2022-10-22T12:26:15.745Z,16.74
2022-10-22T12:27:17.296Z,16.71
2022-10-22T12:28:15.715Z,16.74
2022-10-22T12:29:15.775Z,16.69
2022-10-22T12:30:15.716Z,16.71
2022-10-22T12:31:15.693Z,16.69
2022-10-22T12:32:15.682Z,16.72
2022-10-22T12:33:15.681Z,16.72
2022-10-22T12:34:15.660Z,16.72
2022-10-22T12:35:15.649Z,16.71
2022-10-22T12:36:15.656Z,16.72
2022-10-22T12:37:15.628Z,16.71
2022-10-22T12:38:15.630Z,16.68
2022-10-22T12:39:15.615Z,16.68
2022-10-22T12:40:15.588Z,16.71
2022-10-22T12:41:15.588Z,16.68
2022-10-22T12:42:15.606Z,16.66
2022-10-22T12:43:15.580Z,16.64
2022-10-22T12:44:15.561Z,16.66
2022-10-22T12:45:15.542Z,16.66
2022-10-22T12:46:15.533Z,16.66
2022-10-22T12:47:15.529Z,16.66
2022-10-22T12:48:15.520Z,16.66
2022-10-22T12:49:15.504Z,16.61
2022-10-22T12:50:15.476Z,16.65
2022-10-22T12:51:15.485Z,16.61
2022-10-22T12:52:15.459Z,16.65
2022-10-22T12:53:15.465Z,16.65
2022-10-22T12:54:15.482Z,16.66
2022-10-22T12:55:15.441Z,16.61
2022-10-22T12:56:15.426Z,16.64
2022-10-22T12:57:15.417Z,16.61
2022-10-22T12:58:15.407Z,16.66
2022-10-22T12:59:15.391Z,16.66
2022-10-22T13:00:15.430Z,16.65